sensor_id;sensor_type;location;lat;lon;timestamp;P1;durP1;ratioP1;P2;durP2;ratioP2
64387;SDS011;50709;52.648;4.764;2023-03-01T00:00:54;17.27;;;9.45;;
64387;SDS011;50709;52.648;4.764;2023-03-01T00:03:29;16.17;;;9.55;;
64387;SDS011;50709;52.648;4.764;2023-03-01T00:05:55;17.55;;;10.13;;
64387;SDS011;50709;52.648;4.764;2023-03-01T00:08:20;17.98;;;9.05;;
64387;SDS011;50709;52.648;4.764;2023-03-01T00:10:45;16.75;;;9.60;;
64387;SDS011;50709;52.648;4.764;2023-03-01T00:13:11;16.48;;;9.75;;
64387;SDS011;50709;52.648;4.764;2023-03-01T00:15:39;16.42;;;10.25;;
64387;SDS011;50709;52.648;4.764;2023-03-01T00:18:06;17.48;;;10.20;;
64387;SDS011;50709;52.648;4.764;2023-03-01T00:20:33;15.68;;;9.38;;
64387;SDS011;50709;52.648;4.764;2023-03-01T00:22:59;18.13;;;9.30;;
64387;SDS011;50709;52.648;4.764;2023-03-01T00:25:24;16.30;;;9.48;;
64387;SDS011;50709;52.648;4.764;2023-03-01T00:27:50;16.08;;;9.60;;
64387;SDS011;50709;52.648;4.764;2023-03-01T00:30:15;18.55;;;9.70;;
64387;SDS011;50709;52.648;4.764;2023-03-01T00:32:41;18.13;;;9.10;;
64387;SDS011;50709;52.648;4.764;2023-03-01T00:35:06;17.20;;;9.63;;
64387;SDS011;50709;52.648;4.764;2023-03-01T00:37:32;18.40;;;9.60;;
64387;SDS011;50709;52.648;4.764;2023-03-01T00:39:57;15.55;;;9.27;;
64387;SDS011;50709;52.648;4.764;2023-03-01T00:42:23;15.02;;;9.25;;
64387;SDS011;50709;52.648;4.764;2023-03-01T00:44:48;18.67;;;9.25;;
64387;SDS011;50709;52.648;4.764;2023-03-01T00:47:13;18.63;;;10.15;;
64387;SDS011;50709;52.648;4.764;2023-03-01T00:49:39;16.00;;;8.93;;
64387;SDS011;50709;52.648;4.764;2023-03-01T00:52:04;13.70;;;8.63;;
64387;SDS011;50709;52.648;4.764;2023-03-01T00:54:30;16.65;;;9.52;;
64387;SDS011;50709;52.648;4.764;2023-03-01T00:56:55;16.58;;;8.82;;
64387;SDS011;50709;52.648;4.764;2023-03-01T00:59:21;17.05;;;9.60;;
64387;SDS011;50709;52.648;4.764;2023-03-01T01:01:46;15.60;;;8.77;;
64387;SDS011;50709;52.648;4.764;2023-03-01T01:04:13;17.55;;;9.38;;
64387;SDS011;50709;52.648;4.764;2023-03-01T01:06:40;17.50;;;9.55;;
64387;SDS011;50709;52.648;4.764;2023-03-01T01:09:11;15.73;;;9.07;;
64387;SDS011;50709;52.648;4.764;2023-03-01T01:11:46;16.45;;;8.40;;
64387;SDS011;50709;52.648;4.764;2023-03-01T01:14:13;17.25;;;9.10;;
64387;SDS011;50709;52.648;4.764;2023-03-01T01:16:39;15.23;;;9.05;;
64387;SDS011;50709;52.648;4.764;2023-03-01T01:19:05;20.35;;;9.68;;
64387;SDS011;50709;52.648;4.764;2023-03-01T01:21:30;18.33;;;10.00;;
64387;SDS011;50709;52.648;4.764;2023-03-01T01:23:56;15.35;;;9.55;;
64387;SDS011;50709;52.648;4.764;2023-03-01T01:26:23;17.52;;;10.13;;
64387;SDS011;50709;52.648;4.764;2023-03-01T01:28:59;15.30;;;8.95;;
64387;SDS011;50709;52.648;4.764;2023-03-01T01:31:26;16.48;;;8.85;;
64387;SDS011;50709;52.648;4.764;2023-03-01T01:33:53;14.85;;;8.60;;
64387;SDS011;50709;52.648;4.764;2023-03-01T01:36:19;16.25;;;8.98;;
64387;SDS011;50709;52.648;4.764;2023-03-01T01:38:45;15.80;;;8.88;;
64387;SDS011;50709;52.648;4.764;2023-03-01T01:41:12;16.27;;;9.15;;
64387;SDS011;50709;52.648;4.764;2023-03-01T01:43:40;16.08;;;8.57;;
64387;SDS011;50709;52.648;4.764;2023-03-01T01:49:00;17.05;;;9.80;;
64387;SDS011;50709;52.648;4.764;2023-03-01T01:51:30;16.75;;;9.07;;
64387;SDS011;50709;52.648;4.764;2023-03-01T01:54:03;15.32;;;8.63;;
64387;SDS011;50709;52.648;4.764;2023-03-01T01:56:33;17.00;;;9.15;;
64387;SDS011;50709;52.648;4.764;2023-03-01T01:58:59;15.32;;;8.70;;
64387;SDS011;50709;52.648;4.764;2023-03-01T02:01:26;15.68;;;8.50;;
64387;SDS011;50709;52.648;4.764;2023-03-01T02:03:52;16.10;;;9.43;;
64387;SDS011;50709;52.648;4.764;2023-03-01T02:06:31;15.32;;;8.60;;
64387;SDS011;50709;52.648;4.764;2023-03-01T02:11:30;20.17;;;9.80;;
64387;SDS011;50709;52.648;4.764;2023-03-01T02:13:56;14.60;;;8.32;;
64387;SDS011;50709;52.648;4.764;2023-03-01T02:16:22;21.35;;;10.73;;
64387;SDS011;50709;52.648;4.764;2023-03-01T02:18:47;19.40;;;10.10;;
64387;SDS011;50709;52.648;4.764;2023-03-01T02:24:19;15.88;;;9.40;;
64387;SDS011;50709;52.648;4.764;2023-03-01T02:27:03;18.83;;;10.18;;
64387;SDS011;50709;52.648;4.764;2023-03-01T02:29:28;19.40;;;9.85;;
64387;SDS011;50709;52.648;4.764;2023-03-01T02:31:54;17.42;;;9.40;;
64387;SDS011;50709;52.648;4.764;2023-03-01T02:34:23;18.00;;;9.68;;
64387;SDS011;50709;52.648;4.764;2023-03-01T02:36:58;15.73;;;8.65;;
64387;SDS011;50709;52.648;4.764;2023-03-01T02:39:39;16.80;;;9.73;;
64387;SDS011;50709;52.648;4.764;2023-03-01T02:42:09;18.02;;;9.65;;
64387;SDS011;50709;52.648;4.764;2023-03-01T02:44:37;19.58;;;9.52;;
64387;SDS011;50709;52.648;4.764;2023-03-01T02:47:03;15.05;;;8.80;;
64387;SDS011;50709;52.648;4.764;2023-03-01T02:49:33;16.02;;;9.57;;
64387;SDS011;50709;52.648;4.764;2023-03-01T02:57:34;15.65;;;8.88;;
64387;SDS011;50709;52.648;4.764;2023-03-01T03:00:03;17.02;;;9.25;;
64387;SDS011;50709;52.648;4.764;2023-03-01T03:02:34;17.08;;;9.82;;
64387;SDS011;50709;52.648;4.764;2023-03-01T03:05:02;17.05;;;9.18;;
64387;SDS011;50709;52.648;4.764;2023-03-01T03:07:33;16.08;;;9.40;;
64387;SDS011;50709;52.648;4.764;2023-03-01T03:10:01;15.80;;;9.13;;
64387;SDS011;50709;52.648;4.764;2023-03-01T03:12:27;16.17;;;9.77;;
64387;SDS011;50709;52.648;4.764;2023-03-01T03:14:52;17.35;;;9.48;;
64387;SDS011;50709;52.648;4.764;2023-03-01T03:17:17;15.55;;;9.45;;
64387;SDS011;50709;52.648;4.764;2023-03-01T03:19:43;18.05;;;8.98;;
64387;SDS011;50709;52.648;4.764;2023-03-01T03:22:10;13.95;;;8.63;;
64387;SDS011;50709;52.648;4.764;2023-03-01T03:24:37;18.10;;;9.40;;
64387;SDS011;50709;52.648;4.764;2023-03-01T03:27:03;14.38;;;8.90;;
64387;SDS011;50709;52.648;4.764;2023-03-01T03:29:30;16.05;;;9.23;;
64387;SDS011;50709;52.648;4.764;2023-03-01T03:31:55;16.85;;;9.55;;
64387;SDS011;50709;52.648;4.764;2023-03-01T03:34:21;16.63;;;9.95;;
64387;SDS011;50709;52.648;4.764;2023-03-01T03:36:46;13.90;;;8.13;;
64387;SDS011;50709;52.648;4.764;2023-03-01T03:39:11;18.20;;;8.68;;
64387;SDS011;50709;52.648;4.764;2023-03-01T03:41:37;15.48;;;8.55;;
64387;SDS011;50709;52.648;4.764;2023-03-01T03:44:02;15.93;;;9.02;;
64387;SDS011;50709;52.648;4.764;2023-03-01T03:46:27;17.10;;;8.88;;
64387;SDS011;50709;52.648;4.764;2023-03-01T03:48:53;14.23;;;8.90;;
64387;SDS011;50709;52.648;4.764;2023-03-01T03:51:18;14.57;;;8.38;;
64387;SDS011;50709;52.648;4.764;2023-03-01T03:53:44;17.42;;;9.15;;
64387;SDS011;50709;52.648;4.764;2023-03-01T03:56:10;15.65;;;9.23;;
64387;SDS011;50709;52.648;4.764;2023-03-01T03:58:36;14.48;;;8.27;;
64387;SDS011;50709;52.648;4.764;2023-03-01T04:01:02;15.68;;;9.05;;
64387;SDS011;50709;52.648;4.764;2023-03-01T04:03:28;15.98;;;8.65;;
64387;SDS011;50709;52.648;4.764;2023-03-01T04:05:59;16.05;;;8.77;;
64387;SDS011;50709;52.648;4.764;2023-03-01T04:08:26;17.80;;;8.48;;
64387;SDS011;50709;52.648;4.764;2023-03-01T04:10:52;15.60;;;8.40;;
64387;SDS011;50709;52.648;4.764;2023-03-01T04:13:23;12.98;;;8.02;;
64387;SDS011;50709;52.648;4.764;2023-03-01T04:15:53;12.50;;;8.18;;
64387;SDS011;50709;52.648;4.764;2023-03-01T04:18:19;13.98;;;8.35;;
64387;SDS011;50709;52.648;4.764;2023-03-01T04:20:50;14.32;;;8.52;;
64387;SDS011;50709;52.648;4.764;2023-03-01T04:23:17;16.60;;;9.18;;
64387;SDS011;50709;52.648;4.764;2023-03-01T04:28:29;15.85;;;8.88;;
64387;SDS011;50709;52.648;4.764;2023-03-01T04:31:03;15.40;;;8.95;;
64387;SDS011;50709;52.648;4.764;2023-03-01T04:33:50;16.88;;;9.70;;
64387;SDS011;50709;52.648;4.764;2023-03-01T04:36:17;19.25;;;10.38;;
64387;SDS011;50709;52.648;4.764;2023-03-01T04:38:44;19.05;;;9.98;;
64387;SDS011;50709;52.648;4.764;2023-03-01T04:41:12;17.15;;;9.85;;
64387;SDS011;50709;52.648;4.764;2023-03-01T04:43:38;19.10;;;9.40;;
64387;SDS011;50709;52.648;4.764;2023-03-01T04:46:05;15.75;;;9.02;;
64387;SDS011;50709;52.648;4.764;2023-03-01T04:48:34;16.27;;;9.63;;
64387;SDS011;50709;52.648;4.764;2023-03-01T04:51:01;16.95;;;9.30;;
64387;SDS011;50709;52.648;4.764;2023-03-01T04:53:27;16.67;;;10.02;;
64387;SDS011;50709;52.648;4.764;2023-03-01T04:55:56;16.92;;;9.15;;
64387;SDS011;50709;52.648;4.764;2023-03-01T04:58:22;16.35;;;9.05;;
64387;SDS011;50709;52.648;4.764;2023-03-01T05:00:49;18.20;;;9.13;;
64387;SDS011;50709;52.648;4.764;2023-03-01T05:03:14;18.50;;;9.98;;
64387;SDS011;50709;52.648;4.764;2023-03-01T05:05:43;18.63;;;10.23;;
64387;SDS011;50709;52.648;4.764;2023-03-01T05:08:10;15.30;;;9.02;;
64387;SDS011;50709;52.648;4.764;2023-03-01T05:10:46;15.45;;;9.05;;
64387;SDS011;50709;52.648;4.764;2023-03-01T05:13:14;19.08;;;10.70;;
64387;SDS011;50709;52.648;4.764;2023-03-01T05:15:56;18.08;;;10.05;;
64387;SDS011;50709;52.648;4.764;2023-03-01T05:18:23;17.67;;;9.45;;
64387;SDS011;50709;52.648;4.764;2023-03-01T05:20:56;15.70;;;9.23;;
64387;SDS011;50709;52.648;4.764;2023-03-01T05:23:29;22.13;;;10.45;;
64387;SDS011;50709;52.648;4.764;2023-03-01T05:25:57;18.52;;;10.02;;
64387;SDS011;50709;52.648;4.764;2023-03-01T05:28:24;20.10;;;10.20;;
64387;SDS011;50709;52.648;4.764;2023-03-01T05:30:51;21.23;;;9.80;;
64387;SDS011;50709;52.648;4.764;2023-03-01T05:33:17;20.33;;;10.75;;
64387;SDS011;50709;52.648;4.764;2023-03-01T05:35:43;18.17;;;9.98;;
64387;SDS011;50709;52.648;4.764;2023-03-01T05:38:10;20.67;;;9.57;;
64387;SDS011;50709;52.648;4.764;2023-03-01T05:40:38;19.33;;;10.70;;
64387;SDS011;50709;52.648;4.764;2023-03-01T05:43:04;18.75;;;10.38;;
64387;SDS011;50709;52.648;4.764;2023-03-01T05:45:30;21.10;;;10.98;;
64387;SDS011;50709;52.648;4.764;2023-03-01T05:47:57;19.30;;;10.60;;
64387;SDS011;50709;52.648;4.764;2023-03-01T05:50:27;19.50;;;10.50;;
64387;SDS011;50709;52.648;4.764;2023-03-01T05:52:58;17.17;;;9.90;;
64387;SDS011;50709;52.648;4.764;2023-03-01T05:55:24;18.00;;;9.23;;
64387;SDS011;50709;52.648;4.764;2023-03-01T05:57:49;15.73;;;9.30;;
64387;SDS011;50709;52.648;4.764;2023-03-01T06:00:15;15.20;;;9.10;;
64387;SDS011;50709;52.648;4.764;2023-03-01T06:02:43;15.55;;;9.35;;
64387;SDS011;50709;52.648;4.764;2023-03-01T06:05:09;15.70;;;9.75;;
64387;SDS011;50709;52.648;4.764;2023-03-01T06:07:39;15.20;;;9.30;;
64387;SDS011;50709;52.648;4.764;2023-03-01T06:10:05;15.63;;;8.10;;
64387;SDS011;50709;52.648;4.764;2023-03-01T06:12:32;19.70;;;9.25;;
64387;SDS011;50709;52.648;4.764;2023-03-01T06:14:58;15.27;;;8.82;;
64387;SDS011;50709;52.648;4.764;2023-03-01T06:17:24;17.15;;;9.25;;
64387;SDS011;50709;52.648;4.764;2023-03-01T06:19:49;16.92;;;9.50;;
64387;SDS011;50709;52.648;4.764;2023-03-01T06:22:15;14.32;;;8.50;;
64387;SDS011;50709;52.648;4.764;2023-03-01T06:24:40;15.68;;;9.20;;
64387;SDS011;50709;52.648;4.764;2023-03-01T06:27:05;13.75;;;8.65;;
64387;SDS011;50709;52.648;4.764;2023-03-01T06:29:31;12.25;;;8.35;;
64387;SDS011;50709;52.648;4.764;2023-03-01T06:31:56;13.48;;;7.95;;
64387;SDS011;50709;52.648;4.764;2023-03-01T06:34:22;13.15;;;7.45;;
64387;SDS011;50709;52.648;4.764;2023-03-01T06:36:47;14.68;;;8.55;;
64387;SDS011;50709;52.648;4.764;2023-03-01T06:39:13;14.48;;;8.50;;
64387;SDS011;50709;52.648;4.764;2023-03-01T06:41:38;14.35;;;8.25;;
64387;SDS011;50709;52.648;4.764;2023-03-01T06:44:03;12.40;;;7.63;;
64387;SDS011;50709;52.648;4.764;2023-03-01T06:46:29;15.90;;;8.30;;
64387;SDS011;50709;52.648;4.764;2023-03-01T06:48:54;15.43;;;8.43;;
64387;SDS011;50709;52.648;4.764;2023-03-01T06:51:20;14.18;;;8.88;;
64387;SDS011;50709;52.648;4.764;2023-03-01T06:53:45;14.25;;;7.90;;
64387;SDS011;50709;52.648;4.764;2023-03-01T06:56:11;19.40;;;8.98;;
64387;SDS011;50709;52.648;4.764;2023-03-01T06:58:37;16.38;;;9.02;;
64387;SDS011;50709;52.648;4.764;2023-03-01T07:01:06;19.77;;;9.30;;
64387;SDS011;50709;52.648;4.764;2023-03-01T07:03:32;17.83;;;9.88;;
64387;SDS011;50709;52.648;4.764;2023-03-01T07:05:57;15.18;;;9.18;;
64387;SDS011;50709;52.648;4.764;2023-03-01T07:08:23;17.45;;;9.65;;
64387;SDS011;50709;52.648;4.764;2023-03-01T07:10:48;17.08;;;8.65;;
64387;SDS011;50709;52.648;4.764;2023-03-01T07:13:20;19.52;;;9.70;;
64387;SDS011;50709;52.648;4.764;2023-03-01T07:15:45;18.90;;;9.95;;
64387;SDS011;50709;52.648;4.764;2023-03-01T07:18:10;18.55;;;10.10;;
64387;SDS011;50709;52.648;4.764;2023-03-01T07:20:36;25.80;;;10.90;;
64387;SDS011;50709;52.648;4.764;2023-03-01T07:23:01;19.63;;;10.02;;
64387;SDS011;50709;52.648;4.764;2023-03-01T07:25:27;21.75;;;10.63;;
64387;SDS011;50709;52.648;4.764;2023-03-01T07:27:52;24.38;;;11.07;;
64387;SDS011;50709;52.648;4.764;2023-03-01T07:30:19;19.25;;;10.75;;
64387;SDS011;50709;52.648;4.764;2023-03-01T07:32:45;17.23;;;9.52;;
64387;SDS011;50709;52.648;4.764;2023-03-01T07:35:11;18.25;;;9.90;;
64387;SDS011;50709;52.648;4.764;2023-03-01T07:37:36;16.38;;;10.00;;
64387;SDS011;50709;52.648;4.764;2023-03-01T07:40:02;19.98;;;11.00;;
64387;SDS011;50709;52.648;4.764;2023-03-01T07:42:28;16.00;;;10.05;;
64387;SDS011;50709;52.648;4.764;2023-03-01T07:44:53;18.25;;;9.95;;
64387;SDS011;50709;52.648;4.764;2023-03-01T07:47:18;18.08;;;10.80;;
64387;SDS011;50709;52.648;4.764;2023-03-01T07:49:44;17.25;;;10.07;;
64387;SDS011;50709;52.648;4.764;2023-03-01T07:52:10;16.08;;;9.77;;
64387;SDS011;50709;52.648;4.764;2023-03-01T07:54:36;17.63;;;10.10;;
64387;SDS011;50709;52.648;4.764;2023-03-01T07:57:02;17.15;;;10.65;;
64387;SDS011;50709;52.648;4.764;2023-03-01T07:59:27;18.90;;;10.95;;
64387;SDS011;50709;52.648;4.764;2023-03-01T08:01:55;20.55;;;12.18;;
64387;SDS011;50709;52.648;4.764;2023-03-01T08:04:21;18.45;;;10.80;;
64387;SDS011;50709;52.648;4.764;2023-03-01T08:06:48;17.85;;;10.68;;
64387;SDS011;50709;52.648;4.764;2023-03-01T08:09:13;19.33;;;10.88;;
64387;SDS011;50709;52.648;4.764;2023-03-01T08:11:38;20.15;;;10.80;;
64387;SDS011;50709;52.648;4.764;2023-03-01T08:14:05;19.73;;;11.45;;
64387;SDS011;50709;52.648;4.764;2023-03-01T08:16:31;20.35;;;11.52;;
64387;SDS011;50709;52.648;4.764;2023-03-01T08:19:02;16.60;;;10.25;;
64387;SDS011;50709;52.648;4.764;2023-03-01T08:21:29;18.50;;;10.75;;
64387;SDS011;50709;52.648;4.764;2023-03-01T08:23:54;22.10;;;11.63;;
64387;SDS011;50709;52.648;4.764;2023-03-01T08:26:20;21.10;;;11.82;;
64387;SDS011;50709;52.648;4.764;2023-03-01T08:28:46;20.10;;;11.35;;
64387;SDS011;50709;52.648;4.764;2023-03-01T08:31:17;20.80;;;12.05;;
64387;SDS011;50709;52.648;4.764;2023-03-01T08:33:45;24.02;;;13.35;;
64387;SDS011;50709;52.648;4.764;2023-03-01T08:36:15;23.75;;;11.88;;
64387;SDS011;50709;52.648;4.764;2023-03-01T08:38:41;26.05;;;13.38;;
64387;SDS011;50709;52.648;4.764;2023-03-01T08:41:07;25.20;;;13.02;;
64387;SDS011;50709;52.648;4.764;2023-03-01T08:43:32;32.70;;;16.75;;
64387;SDS011;50709;52.648;4.764;2023-03-01T08:45:58;24.70;;;12.57;;
64387;SDS011;50709;52.648;4.764;2023-03-01T08:48:23;23.85;;;13.52;;
64387;SDS011;50709;52.648;4.764;2023-03-01T08:50:48;23.58;;;12.88;;
64387;SDS011;50709;52.648;4.764;2023-03-01T08:53:14;21.70;;;12.68;;
64387;SDS011;50709;52.648;4.764;2023-03-01T08:55:39;21.38;;;12.77;;
64387;SDS011;50709;52.648;4.764;2023-03-01T08:58:05;20.45;;;12.45;;
64387;SDS011;50709;52.648;4.764;2023-03-01T09:00:30;24.88;;;14.05;;
64387;SDS011;50709;52.648;4.764;2023-03-01T09:02:56;23.35;;;14.07;;
64387;SDS011;50709;52.648;4.764;2023-03-01T09:05:21;21.45;;;12.43;;
64387;SDS011;50709;52.648;4.764;2023-03-01T09:07:46;22.13;;;12.48;;
64387;SDS011;50709;52.648;4.764;2023-03-01T09:10:12;20.08;;;11.63;;
64387;SDS011;50709;52.648;4.764;2023-03-01T09:12:37;19.35;;;12.18;;
64387;SDS011;50709;52.648;4.764;2023-03-01T09:15:03;20.00;;;12.32;;
64387;SDS011;50709;52.648;4.764;2023-03-01T09:17:28;19.13;;;11.18;;
64387;SDS011;50709;52.648;4.764;2023-03-01T09:19:54;18.67;;;10.43;;
64387;SDS011;50709;52.648;4.764;2023-03-01T09:22:19;18.55;;;11.15;;
64387;SDS011;50709;52.648;4.764;2023-03-01T09:24:44;15.98;;;9.68;;
64387;SDS011;50709;52.648;4.764;2023-03-01T09:27:10;17.60;;;11.05;;
64387;SDS011;50709;52.648;4.764;2023-03-01T09:29:36;18.45;;;10.23;;
64387;SDS011;50709;52.648;4.764;2023-03-01T09:32:01;20.98;;;12.70;;
64387;SDS011;50709;52.648;4.764;2023-03-01T09:34:27;25.20;;;15.95;;
64387;SDS011;50709;52.648;4.764;2023-03-01T09:36:52;28.08;;;15.88;;
64387;SDS011;50709;52.648;4.764;2023-03-01T09:39:18;19.85;;;12.95;;
64387;SDS011;50709;52.648;4.764;2023-03-01T09:41:46;23.27;;;14.18;;
64387;SDS011;50709;52.648;4.764;2023-03-01T09:44:27;21.40;;;13.10;;
64387;SDS011;50709;52.648;4.764;2023-03-01T09:46:58;29.67;;;18.55;;
64387;SDS011;50709;52.648;4.764;2023-03-01T09:49:28;23.27;;;14.27;;
64387;SDS011;50709;52.648;4.764;2023-03-01T09:52:02;23.90;;;16.13;;
64387;SDS011;50709;52.648;4.764;2023-03-01T09:54:37;22.60;;;14.52;;
64387;SDS011;50709;52.648;4.764;2023-03-01T09:57:06;22.52;;;14.65;;
64387;SDS011;50709;52.648;4.764;2023-03-01T10:05:05;48.20;;;28.08;;
64387;SDS011;50709;52.648;4.764;2023-03-01T10:08:31;26.35;;;17.23;;
64387;SDS011;50709;52.648;4.764;2023-03-01T10:10:44;27.98;;;15.07;;
64387;SDS011;50709;52.648;4.764;2023-03-01T10:13:19;23.55;;;13.30;;
64387;SDS011;50709;52.648;4.764;2023-03-01T10:15:55;25.10;;;13.27;;
64387;SDS011;50709;52.648;4.764;2023-03-01T10:18:30;20.80;;;12.18;;
64387;SDS011;50709;52.648;4.764;2023-03-01T10:23:45;24.90;;;15.95;;
64387;SDS011;50709;52.648;4.764;2023-03-01T10:26:50;29.23;;;13.60;;
64387;SDS011;50709;52.648;4.764;2023-03-01T10:29:10;19.27;;;12.05;;
64387;SDS011;50709;52.648;4.764;2023-03-01T10:31:49;22.83;;;12.13;;
64387;SDS011;50709;52.648;4.764;2023-03-01T10:36:48;18.75;;;10.70;;
64387;SDS011;50709;52.648;4.764;2023-03-01T10:39:20;18.17;;;11.63;;
64387;SDS011;50709;52.648;4.764;2023-03-01T10:41:55;19.00;;;12.23;;
64387;SDS011;50709;52.648;4.764;2023-03-01T10:47:26;17.10;;;10.70;;
64387;SDS011;50709;52.648;4.764;2023-03-01T10:49:54;19.75;;;11.32;;
64387;SDS011;50709;52.648;4.764;2023-03-01T10:52:23;18.90;;;11.52;;
64387;SDS011;50709;52.648;4.764;2023-03-01T10:54:52;20.63;;;12.50;;
64387;SDS011;50709;52.648;4.764;2023-03-01T10:57:30;19.20;;;10.43;;
64387;SDS011;50709;52.648;4.764;2023-03-01T11:03:08;16.85;;;11.38;;
64387;SDS011;50709;52.648;4.764;2023-03-01T11:05:37;19.50;;;12.88;;
64387;SDS011;50709;52.648;4.764;2023-03-01T11:08:26;14.63;;;9.88;;
64387;SDS011;50709;52.648;4.764;2023-03-01T11:11:13;18.10;;;10.57;;
64387;SDS011;50709;52.648;4.764;2023-03-01T11:14:13;17.88;;;11.30;;
64387;SDS011;50709;52.648;4.764;2023-03-01T11:16:38;14.77;;;9.50;;
64387;SDS011;50709;52.648;4.764;2023-03-01T11:21:33;15.60;;;8.98;;
64387;SDS011;50709;52.648;4.764;2023-03-01T11:24:03;15.80;;;9.27;;
64387;SDS011;50709;52.648;4.764;2023-03-01T11:26:30;16.30;;;9.63;;
64387;SDS011;50709;52.648;4.764;2023-03-01T11:29:02;13.20;;;9.00;;
64387;SDS011;50709;52.648;4.764;2023-03-01T11:31:31;16.70;;;9.85;;
64387;SDS011;50709;52.648;4.764;2023-03-01T11:34:05;14.52;;;9.07;;
64387;SDS011;50709;52.648;4.764;2023-03-01T11:42:47;16.05;;;10.77;;
64387;SDS011;50709;52.648;4.764;2023-03-01T11:45:39;15.77;;;8.90;;
64387;SDS011;50709;52.648;4.764;2023-03-01T11:48:38;15.45;;;9.50;;
64387;SDS011;50709;52.648;4.764;2023-03-01T11:51:09;14.63;;;9.48;;
64387;SDS011;50709;52.648;4.764;2023-03-01T11:54:03;16.40;;;10.43;;
64387;SDS011;50709;52.648;4.764;2023-03-01T11:56:40;16.92;;;9.77;;
64387;SDS011;50709;52.648;4.764;2023-03-01T12:01:59;15.18;;;8.98;;
64387;SDS011;50709;52.648;4.764;2023-03-01T12:04:36;13.30;;;8.20;;
64387;SDS011;50709;52.648;4.764;2023-03-01T12:07:09;16.83;;;10.25;;
64387;SDS011;50709;52.648;4.764;2023-03-01T12:09:47;15.25;;;9.02;;
64387;SDS011;50709;52.648;4.764;2023-03-01T12:25:39;17.13;;;11.10;;
64387;SDS011;50709;52.648;4.764;2023-03-01T12:33:43;17.73;;;10.57;;
64387;SDS011;50709;52.648;4.764;2023-03-01T12:45:00;18.73;;;9.40;;
64387;SDS011;50709;52.648;4.764;2023-03-01T12:53:24;16.13;;;8.00;;
64387;SDS011;50709;52.648;4.764;2023-03-01T12:55:55;15.63;;;9.95;;
64387;SDS011;50709;52.648;4.764;2023-03-01T12:58:41;16.20;;;9.38;;
64387;SDS011;50709;52.648;4.764;2023-03-01T13:01:24;12.75;;;8.10;;
64387;SDS011;50709;52.648;4.764;2023-03-01T13:17:58;14.35;;;8.75;;
64387;SDS011;50709;52.648;4.764;2023-03-01T13:28:45;16.80;;;9.07;;
64387;SDS011;50709;52.648;4.764;2023-03-01T13:33:41;14.68;;;9.13;;
64387;SDS011;50709;52.648;4.764;2023-03-01T13:36:11;21.67;;;11.05;;
64387;SDS011;50709;52.648;4.764;2023-03-01T13:46:45;19.42;;;7.43;;
64387;SDS011;50709;52.648;4.764;2023-03-01T13:49:13;18.40;;;8.02;;
64387;SDS011;50709;52.648;4.764;2023-03-01T13:51:46;13.77;;;7.90;;
64387;SDS011;50709;52.648;4.764;2023-03-01T13:54:12;16.73;;;10.60;;
64387;SDS011;50709;52.648;4.764;2023-03-01T13:56:40;13.77;;;8.43;;
64387;SDS011;50709;52.648;4.764;2023-03-01T13:59:15;18.80;;;11.00;;
64387;SDS011;50709;52.648;4.764;2023-03-01T14:01:42;20.52;;;11.27;;
64387;SDS011;50709;52.648;4.764;2023-03-01T14:07:13;17.75;;;11.48;;
64387;SDS011;50709;52.648;4.764;2023-03-01T14:09:42;27.05;;;16.77;;
64387;SDS011;50709;52.648;4.764;2023-03-01T14:15:33;14.70;;;8.45;;
64387;SDS011;50709;52.648;4.764;2023-03-01T14:18:35;18.45;;;11.15;;
64387;SDS011;50709;52.648;4.764;2023-03-01T14:21:18;18.30;;;11.07;;
64387;SDS011;50709;52.648;4.764;2023-03-01T14:23:44;19.30;;;11.13;;
64387;SDS011;50709;52.648;4.764;2023-03-01T14:26:11;19.73;;;12.15;;
64387;SDS011;50709;52.648;4.764;2023-03-01T14:28:37;17.67;;;10.07;;
64387;SDS011;50709;52.648;4.764;2023-03-01T14:31:21;16.88;;;9.98;;
64387;SDS011;50709;52.648;4.764;2023-03-01T14:34:02;17.83;;;11.68;;
64387;SDS011;50709;52.648;4.764;2023-03-01T14:36:29;17.92;;;11.30;;
64387;SDS011;50709;52.648;4.764;2023-03-01T14:38:57;20.33;;;13.98;;
64387;SDS011;50709;52.648;4.764;2023-03-01T14:41:31;18.05;;;10.65;;
64387;SDS011;50709;52.648;4.764;2023-03-01T14:44:04;21.98;;;11.60;;
64387;SDS011;50709;52.648;4.764;2023-03-01T14:46:33;20.95;;;12.20;;
64387;SDS011;50709;52.648;4.764;2023-03-01T14:49:02;21.05;;;10.85;;
64387;SDS011;50709;52.648;4.764;2023-03-01T14:51:30;16.83;;;10.15;;
64387;SDS011;50709;52.648;4.764;2023-03-01T14:53:55;20.05;;;11.48;;
64387;SDS011;50709;52.648;4.764;2023-03-01T14:56:21;16.60;;;10.77;;
64387;SDS011;50709;52.648;4.764;2023-03-01T14:58:50;19.40;;;12.23;;
64387;SDS011;50709;52.648;4.764;2023-03-01T15:01:17;19.05;;;9.35;;
64387;SDS011;50709;52.648;4.764;2023-03-01T15:03:44;19.45;;;11.07;;
64387;SDS011;50709;52.648;4.764;2023-03-01T15:06:14;16.67;;;9.63;;
64387;SDS011;50709;52.648;4.764;2023-03-01T15:08:44;19.88;;;11.45;;
64387;SDS011;50709;52.648;4.764;2023-03-01T15:11:27;19.48;;;11.93;;
64387;SDS011;50709;52.648;4.764;2023-03-01T15:13:57;19.17;;;11.13;;
64387;SDS011;50709;52.648;4.764;2023-03-01T15:16:29;15.27;;;9.20;;
64387;SDS011;50709;52.648;4.764;2023-03-01T15:19:00;16.95;;;9.32;;
64387;SDS011;50709;52.648;4.764;2023-03-01T15:21:29;16.33;;;9.85;;
64387;SDS011;50709;52.648;4.764;2023-03-01T15:24:13;17.30;;;9.27;;
64387;SDS011;50709;52.648;4.764;2023-03-01T15:26:45;17.05;;;9.50;;
64387;SDS011;50709;52.648;4.764;2023-03-01T15:29:21;15.95;;;9.40;;
64387;SDS011;50709;52.648;4.764;2023-03-01T15:31:55;17.83;;;10.25;;
64387;SDS011;50709;52.648;4.764;2023-03-01T15:34:28;16.70;;;8.55;;
64387;SDS011;50709;52.648;4.764;2023-03-01T15:36:56;16.40;;;8.35;;
64387;SDS011;50709;52.648;4.764;2023-03-01T15:39:40;15.55;;;8.82;;
64387;SDS011;50709;52.648;4.764;2023-03-01T15:42:52;15.00;;;7.82;;
64387;SDS011;50709;52.648;4.764;2023-03-01T15:47:46;19.05;;;10.00;;
64387;SDS011;50709;52.648;4.764;2023-03-01T15:50:16;19.30;;;10.45;;
64387;SDS011;50709;52.648;4.764;2023-03-01T15:52:44;18.17;;;10.70;;
64387;SDS011;50709;52.648;4.764;2023-03-01T15:55:15;19.80;;;9.40;;
64387;SDS011;50709;52.648;4.764;2023-03-01T15:57:43;17.08;;;10.10;;
64387;SDS011;50709;52.648;4.764;2023-03-01T16:00:09;16.42;;;9.75;;
64387;SDS011;50709;52.648;4.764;2023-03-01T16:02:36;16.95;;;10.07;;
64387;SDS011;50709;52.648;4.764;2023-03-01T16:05:03;14.43;;;8.68;;
64387;SDS011;50709;52.648;4.764;2023-03-01T16:07:28;15.52;;;10.05;;
64387;SDS011;50709;52.648;4.764;2023-03-01T16:09:56;18.30;;;10.38;;
64387;SDS011;50709;52.648;4.764;2023-03-01T16:12:21;18.10;;;11.05;;
64387;SDS011;50709;52.648;4.764;2023-03-01T16:14:47;13.70;;;7.65;;
64387;SDS011;50709;52.648;4.764;2023-03-01T16:17:13;19.90;;;9.18;;
64387;SDS011;50709;52.648;4.764;2023-03-01T16:19:39;15.68;;;8.85;;
64387;SDS011;50709;52.648;4.764;2023-03-01T16:22:05;20.10;;;11.30;;
64387;SDS011;50709;52.648;4.764;2023-03-01T16:24:30;16.90;;;9.70;;
64387;SDS011;50709;52.648;4.764;2023-03-01T16:26:56;17.50;;;9.27;;
64387;SDS011;50709;52.648;4.764;2023-03-01T16:29:21;18.02;;;10.00;;
64387;SDS011;50709;52.648;4.764;2023-03-01T16:31:46;17.85;;;10.00;;
64387;SDS011;50709;52.648;4.764;2023-03-01T16:34:12;16.25;;;9.00;;
64387;SDS011;50709;52.648;4.764;2023-03-01T16:36:38;17.00;;;10.43;;
64387;SDS011;50709;52.648;4.764;2023-03-01T16:39:03;19.10;;;8.98;;